Amr R — XUAX5 — position and weather

sailwx.info

Track history (hours):
 
Tides and Currents Weather Stations Pressure Air Temp Water Temp Dewpoint Dewpoint Depression Visibility Wind Speed Wind Dir Waves Ship Positions

Amr R

Last reported at 2015-Mar-02 10:29 UTC. Time now 2015-Mar-02 11:18 UTC.
Position N 44°44' E 037°47'.

Length 130 m; draft 6 m.

Type: Cargo ship. MMSI: 514427000.

Date/timePositionNaut miles runAvg speedWind from/ knotsBaromVisibWave heightAir tempDewpointWater temp
2015-Mar-02 10:29N 44°44' E 037°47'5 4.9
2015-Mar-02 09:33N 44°40' E 037°50'9 8.6
2015-Mar-02 08:33N 44°31' E 037°50'8 7.8
2015-Mar-02 07:33N 44°24' E 037°49'2 1.8
2015-Mar-02 06:33N 44°22' E 037°50'1 1.0
2015-Mar-02 05:33N 44°22' E 037°51'1 1.0
2015-Mar-02 04:33N 44°23' E 037°52'1 1.0
2015-Mar-02 03:33N 44°23' E 037°53'1 0.9
2015-Mar-02 02:33N 44°24' E 037°54'1 0.5
2015-Mar-02 01:33N 44°24' E 037°55'1 0.6
2015-Mar-02 00:33N 44°25' E 037°55'0 0.4
2015-Mar-01 23:34N 44°25' E 037°55'0 0.3
2015-Mar-01 22:32N 44°25' E 037°55'0 0.3
2015-Mar-01 21:33N 44°26' E 037°55'2 1.6
2015-Mar-01 20:33N 44°27' E 037°54'1 0.7
2015-Mar-01 19:33N 44°28' E 037°55'1 0.8
2015-Mar-01 18:34N 44°29' E 037°55'3 3.0
2015-Mar-01 17:33N 44°29' E 037°51'8 8.1
2015-Mar-01 16:33N 44°27' E 037°40'11 8.2
2015-Mar-01 15:14N 44°25' E 037°25'6 8.1
2015-Mar-01 14:31N 44°22' E 037°18'8 0.3
2015-Feb-28 12:32N 44°30' E 037°20'2 1.9
2015-Feb-28 11:27N 44°30' E 037°22'2 2.1
2015-Feb-28 10:29N 44°30' E 037°25'2 2.2
2015-Feb-28 09:33N 44°30' E 037°28'2 2.2
2015-Feb-28 08:31N 44°29' E 037°31'2 2.2
2015-Feb-28 07:33N 44°29' E 037°34'2 2.1
2015-Feb-28 06:33N 44°29' E 037°37'2 1.9
2015-Feb-28 05:33N 44°29' E 037°40'2 1.8
2015-Feb-28 04:34N 44°29' E 037°42'2 1.8
2015-Feb-28 03:29N 44°28' E 037°45'1 0.9
2015-Feb-28 02:33N 44°28' E 037°46'1 0.7
2015-Feb-28 01:34N 44°28' E 037°47'1 0.8
2015-Feb-28 00:34N 44°28' E 037°48'1 0.8
2015-Feb-27 23:34N 44°28' E 037°49'1 0.7
2015-Feb-27 22:34N 44°28' E 037°50'1 0.7
2015-Feb-27 21:34N 44°28' E 037°51'1 0.9
2015-Feb-27 20:33N 44°29' E 037°52'1 1.1
2015-Feb-27 19:33N 44°29' E 037°54'0 0.2
2015-Feb-27 18:33N 44°29' E 037°54'7 7.3
2015-Feb-27 17:34N 44°31' E 037°44'7 7.3
2015-Feb-27 16:32N 44°27' E 037°34'9 8.0
2015-Feb-27 15:22N 44°22' E 037°23'50 8.6
2015-Feb-27 09:33N 43°59' E 036°21'9 8.6
2015-Feb-27 08:29N 43°55' E 036°10'28 8.4
2015-Feb-27 05:09N 43°42' E 035°35'297 8.8
2015-Feb-25 19:33N 41°25' E 029°37'9 9.3
2015-Feb-25 18:33N 41°21' E 029°26'9 9.1
2015-Feb-25 17:33N 41°17' E 029°16'20 8.9
2015-Feb-25 15:21N 41°01' E 028°60'7 8.4
2015-Feb-25 14:33N 40°55' E 028°58'8 7.6
2015-Feb-25 13:31N 40°48' E 028°53'7 7.3
2015-Feb-25 12:33N 40°41' E 028°50'3 3.3
2015-Feb-25 11:33N 40°38' E 028°49'1 0.9
2015-Feb-25 10:34N 40°39' E 028°49'1 1.2
2015-Feb-25 09:33N 40°40' E 028°50'1 1.2
2015-Feb-25 08:33N 40°41' E 028°50'1 1.0
2015-Feb-25 07:32N 40°42' E 028°51'1 1.1
2015-Feb-25 06:33N 40°43' E 028°51'1 1.2
2015-Feb-25 05:33N 40°44' E 028°52'1 1.1
2015-Feb-25 04:33N 40°45' E 028°53'4 3.8
2015-Feb-25 03:33N 40°47' E 028°49'10 8.3
2015-Feb-25 02:18N 40°50' E 028°36'233 7.5
2015-Feb-23 19:16N 37°34' E 025°54'7 9.4
2015-Feb-23 18:30N 37°27' E 025°56'  
Track history (hours):
 
Tides and Currents Weather Stations Pressure Air Temp Water Temp Dewpoint Dewpoint Depression Visibility Wind Speed Wind Dir Waves Ship Positions

Amr R

Last reported at 2015-Mar-02 10:29 UTC. Time now 2015-Mar-02 11:18 UTC.
Position N 44°44' E 037°47'.

Length 130 m; draft 6 m.

Type: Cargo ship. MMSI: 514427000.

Date/timePositionNaut miles runAvg speedWind from/ knotsBaromVisibWave heightAir tempDewpointWater temp
2015-Mar-02 10:29N 44°44' E 037°47'5 4.9
2015-Mar-02 09:33N 44°40' E 037°50'9 8.6
2015-Mar-02 08:33N 44°31' E 037°50'8 7.8
2015-Mar-02 07:33N 44°24' E 037°49'2 1.8
2015-Mar-02 06:33N 44°22' E 037°50'1 1.0
2015-Mar-02 05:33N 44°22' E 037°51'1 1.0
2015-Mar-02 04:33N 44°23' E 037°52'1 1.0
2015-Mar-02 03:33N 44°23' E 037°53'1 0.9
2015-Mar-02 02:33N 44°24' E 037°54'1 0.5
2015-Mar-02 01:33N 44°24' E 037°55'1 0.6
2015-Mar-02 00:33N 44°25' E 037°55'0 0.4
2015-Mar-01 23:34N 44°25' E 037°55'0 0.3
2015-Mar-01 22:32N 44°25' E 037°55'0 0.3
2015-Mar-01 21:33N 44°26' E 037°55'2 1.6
2015-Mar-01 20:33N 44°27' E 037°54'1 0.7
2015-Mar-01 19:33N 44°28' E 037°55'1 0.8
2015-Mar-01 18:34N 44°29' E 037°55'3 3.0
2015-Mar-01 17:33N 44°29' E 037°51'8 8.1
2015-Mar-01 16:33N 44°27' E 037°40'11 8.2
2015-Mar-01 15:14N 44°25' E 037°25'6 8.1
2015-Mar-01 14:31N 44°22' E 037°18'8 0.3
2015-Feb-28 12:32N 44°30' E 037°20'2 1.9
2015-Feb-28 11:27N 44°30' E 037°22'2 2.1
2015-Feb-28 10:29N 44°30' E 037°25'2 2.2
2015-Feb-28 09:33N 44°30' E 037°28'2 2.2
2015-Feb-28 08:31N 44°29' E 037°31'2 2.2
2015-Feb-28 07:33N 44°29' E 037°34'2 2.1
2015-Feb-28 06:33N 44°29' E 037°37'2 1.9
2015-Feb-28 05:33N 44°29' E 037°40'2 1.8
2015-Feb-28 04:34N 44°29' E 037°42'2 1.8
2015-Feb-28 03:29N 44°28' E 037°45'1 0.9
2015-Feb-28 02:33N 44°28' E 037°46'1 0.7
2015-Feb-28 01:34N 44°28' E 037°47'1 0.8
2015-Feb-28 00:34N 44°28' E 037°48'1 0.8
2015-Feb-27 23:34N 44°28' E 037°49'1 0.7
2015-Feb-27 22:34N 44°28' E 037°50'1 0.7
2015-Feb-27 21:34N 44°28' E 037°51'1 0.9
2015-Feb-27 20:33N 44°29' E 037°52'1 1.1
2015-Feb-27 19:33N 44°29' E 037°54'0 0.2
2015-Feb-27 18:33N 44°29' E 037°54'7 7.3
2015-Feb-27 17:34N 44°31' E 037°44'7 7.3
2015-Feb-27 16:32N 44°27' E 037°34'9 8.0
2015-Feb-27 15:22N 44°22' E 037°23'50 8.6
2015-Feb-27 09:33N 43°59' E 036°21'9 8.6
2015-Feb-27 08:29N 43°55' E 036°10'28 8.4
2015-Feb-27 05:09N 43°42' E 035°35'297 8.8
2015-Feb-25 19:33N 41°25' E 029°37'9 9.3
2015-Feb-25 18:33N 41°21' E 029°26'9 9.1
2015-Feb-25 17:33N 41°17' E 029°16'20 8.9
2015-Feb-25 15:21N 41°01' E 028°60'7 8.4
2015-Feb-25 14:33N 40°55' E 028°58'8 7.6
2015-Feb-25 13:31N 40°48' E 028°53'7 7.3
2015-Feb-25 12:33N 40°41' E 028°50'3 3.3
2015-Feb-25 11:33N 40°38' E 028°49'1 0.9
2015-Feb-25 10:34N 40°39' E 028°49'1 1.2
2015-Feb-25 09:33N 40°40' E 028°50'1 1.2
2015-Feb-25 08:33N 40°41' E 028°50'1 1.0
2015-Feb-25 07:32N 40°42' E 028°51'1 1.1
2015-Feb-25 06:33N 40°43' E 028°51'1 1.2
2015-Feb-25 05:33N 40°44' E 028°52'1 1.1
2015-Feb-25 04:33N 40°45' E 028°53'4 3.8
2015-Feb-25 03:33N 40°47' E 028°49'10 8.3
2015-Feb-25 02:18N 40°50' E 028°36'233 7.5
2015-Feb-23 19:16N 37°34' E 025°54'7 9.4
2015-Feb-23 18:30N 37°27' E 025°56'  

Dump ship's entire track history